Time;durP1;ratioP1;P1;durP2;ratioP2;P2;SDS_P1;SDS_P2;PMS_P1;PMS_P2;Temp;Humidity;BMP_temperature;BMP_pressure;BME280_temperature;BME280_humidity;BME280_pressure;Samples;Min_cycle;Max_cycle;Signal;HPM_P1;HPM_P2
2022/08/01 00:00:23;;;;;;;2.60;2.50;;;21.40;96.10;;;;;;6125473;23;20154;-76
2022/08/01 00:02:48;;;;;;;2.78;2.45;;;21.40;96.10;;;;;;6125509;23;20158;-76
2022/08/01 00:05:14;;;;;;;3.15;2.90;;;21.40;96.10;;;;;;6125061;23;20702;-76
2022/08/01 00:07:40;;;;;;;3.00;2.70;;;21.40;96.30;;;;;;6125471;23;20153;-75
2022/08/01 00:10:08;;;;;;;3.25;2.50;;;21.40;96.30;;;;;;6125191;23;20176;-75
2022/08/01 00:12:34;;;;;;;2.17;2.08;;;21.40;96.30;;;;;;6124922;23;20594;-76
2022/08/01 00:15:00;;;;;;;2.80;2.60;;;21.40;96.20;;;;;;6125326;23;20221;-76
2022/08/01 00:17:26;;;;;;;2.67;2.45;;;21.50;96.00;;;;;;6099056;23;20158;-78
2022/08/01 00:19:52;;;;;;;2.55;2.35;;;21.50;96.10;;;;;;6124572;23;20161;-77
2022/08/01 00:22:17;;;;;;;2.55;2.33;;;21.40;96.10;;;;;;6124788;23;20154;-78
2022/08/01 00:24:43;;;;;;;2.15;1.95;;;21.40;96.50;;;;;;6124891;23;20212;-77
2022/08/01 00:27:09;;;;;;;2.08;1.98;;;21.30;96.40;;;;;;6125186;23;20526;-76
2022/08/01 00:29:34;;;;;;;2.13;1.88;;;21.30;96.80;;;;;;6123734;23;20614;-76
2022/08/01 00:32:00;;;;;;;2.63;2.42;;;21.30;96.80;;;;;;6125041;23;20145;-76
2022/08/01 00:34:25;;;;;;;2.15;1.70;;;21.20;96.70;;;;;;6125028;23;20280;-76
2022/08/01 00:36:51;;;;;;;1.80;1.70;;;21.20;96.60;;;;;;6124765;23;20679;-76
2022/08/01 00:39:16;;;;;;;2.83;2.10;;;21.20;96.70;;;;;;6098810;23;20166;-76
2022/08/01 00:41:42;;;;;;;2.45;2.22;;;21.20;96.90;;;;;;6124952;23;20154;-76
2022/08/01 00:44:08;;;;;;;2.22;2.13;;;21.10;96.90;;;;;;6125014;23;20182;-76
2022/08/01 00:46:34;;;;;;;2.28;2.00;;;21.10;97.10;;;;;;6124708;23;20173;-76
2022/08/01 00:49:00;;;;;;;2.28;2.08;;;21.00;97.50;;;;;;6098698;23;20213;-77
2022/08/01 00:51:26;;;;;;;4.03;2.28;;;21.00;97.80;;;;;;6125132;23;20146;-77
2022/08/01 00:53:53;;;;;;;2.50;2.40;;;20.90;98.30;;;;;;6098921;23;20189;-77
2022/08/01 00:56:20;;;;;;;2.58;2.38;;;20.80;98.60;;;;;;6099093;23;20627;-77
2022/08/01 00:58:47;;;;;;;2.58;2.38;;;20.70;99.00;;;;;;6124958;23;20164;-77
2022/08/01 01:01:12;;;;;;;2.13;2.00;;;20.60;99.50;;;;;;6125206;23;20214;-77
2022/08/01 01:03:38;;;;;;;2.35;2.25;;;20.60;99.90;;;;;;6124102;23;20178;-76
2022/08/01 01:06:24;;;;;;;3.08;2.30;;;20.50;99.90;;;;;;6124694;23;20471;-76
2022/08/01 01:08:55;;;;;;;2.58;2.38;;;20.40;99.90;;;;;;6098232;23;20169;-76
2022/08/01 01:11:31;;;;;;;2.55;2.35;;;20.40;99.90;;;;;;6124870;23;20141;-76
2022/08/01 01:14:13;;;;;;;2.47;2.33;;;20.40;99.90;;;;;;6124428;23;20276;-77
2022/08/01 01:16:42;;;;;;;2.55;2.35;;;20.30;99.90;;;;;;6124689;23;20150;-77
2022/08/01 01:19:15;;;;;;;4.00;2.58;;;20.30;99.90;;;;;;6124589;23;20169;-76
2022/08/01 01:22:06;;;;;;;2.15;2.05;;;20.20;99.90;;;;;;6124923;23;20146;-76
2022/08/01 01:24:49;;;;;;;2.80;2.60;;;20.10;99.90;;;;;;6124644;23;20643;-76
2022/08/01 01:27:40;;;;;;;2.28;2.15;;;20.10;99.90;;;;;;6124845;23;20193;-76
2022/08/01 01:30:06;;;;;;;2.50;2.30;;;20.00;99.90;;;;;;6124558;23;20162;-76
2022/08/01 01:32:41;;;;;;;1.98;1.88;;;19.90;99.90;;;;;;6124740;23;20225;-76
2022/08/01 01:35:15;;;;;;;2.50;2.40;;;19.80;99.90;;;;;;6124745;23;20173;-76
2022/08/01 01:37:42;;;;;;;2.30;2.10;;;19.80;99.90;;;;;;6124378;23;20146;-77
2022/08/01 01:40:10;;;;;;;3.83;1.90;;;19.80;99.90;;;;;;6124540;23;20228;-77
2022/08/01 01:42:37;;;;;;;2.58;2.47;;;19.80;99.90;;;;;;6124801;23;20154;-77
2022/08/01 01:45:05;;;;;;;2.83;2.45;;;19.80;99.90;;;;;;6098647;23;20207;-77
2022/08/01 01:47:32;;;;;;;2.50;2.30;;;19.80;99.90;;;;;;6124101;23;20242;-77
2022/08/01 01:50:00;;;;;;;2.38;2.00;;;19.90;99.90;;;;;;6124505;23;20531;-77
2022/08/01 01:52:27;;;;;;;2.30;2.17;;;19.90;99.90;;;;;;6124503;23;20153;-77
2022/08/01 01:54:55;;;;;;;2.50;2.35;;;19.90;99.90;;;;;;6124645;23;20257;-76
2022/08/01 01:57:22;;;;;;;2.38;2.20;;;19.90;99.90;;;;;;6124840;23;20154;-76
2022/08/01 01:59:51;;;;;;;4.47;2.58;;;19.90;99.90;;;;;;6124314;23;20474;-76
2022/08/01 02:02:18;;;;;;;2.42;2.25;;;19.90;99.90;;;;;;6124451;23;20150;-76
2022/08/01 02:04:46;;;;;;;2.50;2.40;;;19.90;99.90;;;;;;6124373;23;20224;-76
2022/08/01 02:07:23;;;;;;;2.63;2.50;;;19.90;99.90;;;;;;6124604;23;20173;-75
2022/08/01 02:09:52;;;;;;;2.17;2.08;;;19.90;99.90;;;;;;6123969;23;20220;-75
2022/08/01 02:12:21;;;;;;;2.78;2.22;;;19.90;99.90;;;;;;6124596;23;20161;-75
2022/08/01 02:14:48;;;;;;;3.83;2.35;;;19.90;99.90;;;;;;6124435;23;20293;-76
2022/08/01 02:17:18;;;;;;;2.70;2.08;;;19.90;99.90;;;;;;6124427;23;20564;-76
2022/08/01 02:19:44;;;;;;;2.65;2.45;;;20.00;99.90;;;;;;6124369;23;20145;-75
2022/08/01 02:22:19;;;;;;;2.45;2.00;;;20.00;99.90;;;;;;6124523;23;20150;-75
2022/08/01 02:24:58;;;;;;;2.50;2.30;;;20.00;99.90;;;;;;6124096;23;20525;-76
2022/08/01 02:27:51;;;;;;;2.67;2.47;;;20.00;99.90;;;;;;6124418;23;20579;-77
2022/08/01 02:30:17;;;;;;;2.60;2.47;;;20.00;99.90;;;;;;6112935;23;20165;-77
2022/08/01 02:32:50;;;;;;;2.53;2.42;;;20.10;99.90;;;;;;6124689;23;20151;-75
2022/08/01 02:35:27;;;;;;;2.97;2.78;;;20.00;99.90;;;;;;6098487;23;20178;-75
2022/08/01 02:37:54;;;;;;;2.53;2.33;;;20.00;99.90;;;;;;6098264;23;20146;-75
2022/08/01 02:40:20;;;;;;;2.97;2.65;;;20.00;99.90;;;;;;6124219;23;20150;-75
2022/08/01 02:42:50;;;;;;;2.60;2.40;;;20.00;99.90;;;;;;6124394;23;20534;-75
2022/08/01 02:45:20;;;;;;;2.60;2.40;;;20.00;99.90;;;;;;6123945;23;20196;-76
2022/08/01 02:47:48;;;;;;;2.40;2.30;;;20.00;99.90;;;;;;6124727;23;20533;-76
2022/08/01 02:50:14;;;;;;;2.58;2.47;;;20.00;99.90;;;;;;6098294;23;20150;-76
2022/08/01 02:52:41;;;;;;;2.50;2.30;;;19.90;99.90;;;;;;6125101;23;20146;-75
2022/08/01 02:55:09;;;;;;;2.50;2.33;;;19.90;99.90;;;;;;6126055;23;20550;-74
2022/08/01 02:57:37;;;;;;;2.55;2.35;;;19.90;99.90;;;;;;6126279;23;20154;-75
2022/08/01 03:00:05;;;;;;;3.05;2.85;;;19.90;99.90;;;;;;6126002;23;20482;-75
2022/08/01 03:02:33;;;;;;;3.58;2.85;;;19.80;99.90;;;;;;6126445;23;20479;-75
2022/08/01 03:05:01;;;;;;;2.60;2.40;;;19.80;99.90;;;;;;6122687;23;20586;-75
2022/08/01 03:07:29;;;;;;;3.80;2.65;;;19.80;99.90;;;;;;6125984;23;20150;-76
2022/08/01 03:09:57;;;;;;;3.83;2.60;;;19.80;99.90;;;;;;6099606;23;20158;-76
2022/08/01 03:12:27;;;;;;;2.70;2.60;;;19.80;99.90;;;;;;6125963;23;20208;-75
2022/08/01 03:14:56;;;;;;;2.97;2.35;;;19.80;99.90;;;;;;6124940;23;20174;-75
2022/08/01 03:17:26;;;;;;;2.35;2.25;;;19.90;99.90;;;;;;6125549;23;20150;-76
2022/08/01 03:19:53;;;;;;;2.10;2.00;;;19.90;99.90;;;;;;6125625;23;20142;-76
2022/08/01 03:22:22;;;;;;;1.88;1.88;;;20.00;99.90;;;;;;6125849;23;20494;-76
2022/08/01 03:24:51;;;;;;;2.50;2.30;;;20.10;99.90;;;;;;6125517;23;20229;-76
2022/08/01 03:27:20;;;;;;;2.00;1.90;;;20.30;99.90;;;;;;6100493;23;20157;-75
2022/08/01 03:29:48;;;;;;;1.83;1.70;;;20.40;99.90;;;;;;6125576;23;20153;-75
2022/08/01 03:32:15;;;;;;;2.15;1.90;;;20.50;99.90;;;;;;6125943;23;20158;-75
2022/08/01 03:34:42;;;;;;;2.47;1.80;;;20.60;99.90;;;;;;6126064;23;20177;-75
2022/08/01 03:37:16;;;;;;;2.00;1.90;;;20.70;99.90;;;;;;6126062;23;20181;-75
2022/08/01 03:40:07;;;;;;;2.13;2.03;;;20.70;99.90;;;;;;6099745;23;20145;-75
2022/08/01 03:42:41;;;;;;;2.08;1.98;;;20.80;99.90;;;;;;6125548;23;20154;-75
2022/08/01 03:45:11;;;;;;;2.28;1.85;;;20.80;99.90;;;;;;6099308;23;20205;-76
2022/08/01 03:47:36;;;;;;;2.83;1.80;;;20.80;99.90;;;;;;6099805;23;20529;-74
2022/08/01 03:50:05;;;;;;;2.28;1.90;;;20.80;99.90;;;;;;6125548;23;20226;-73
2022/08/01 03:52:33;;;;;;;1.90;1.80;;;20.80;99.90;;;;;;6125446;23;20154;-73
2022/08/01 03:55:06;;;;;;;1.90;1.80;;;20.80;99.90;;;;;;6125887;23;20174;-74
2022/08/01 03:57:33;;;;;;;3.00;1.98;;;20.70;99.90;;;;;;6125264;23;20193;-77
2022/08/01 04:00:00;;;;;;;2.10;2.00;;;20.70;99.90;;;;;;6125654;23;20150;-73
2022/08/01 04:02:27;;;;;;;2.20;2.00;;;20.70;99.90;;;;;;6125791;23;20154;-74
2022/08/01 04:04:53;;;;;;;1.90;1.80;;;20.70;99.90;;;;;;6124893;23;20581;-74
2022/08/01 04:07:24;;;;;;;2.33;2.13;;;20.60;99.90;;;;;;6125182;23;20700;-74
2022/08/01 04:09:50;;;;;;;2.20;2.00;;;20.60;99.90;;;;;;6125742;23;20135;-74
2022/08/01 04:12:16;;;;;;;2.33;2.20;;;20.60;99.90;;;;;;6125596;23;20726;-74
2022/08/01 04:14:41;;;;;;;2.25;2.15;;;20.60;99.90;;;;;;6125200;23;20170;-73
2022/08/01 04:17:07;;;;;;;2.60;2.50;;;20.70;99.90;;;;;;6125454;23;20595;-73
2022/08/01 04:19:33;;;;;;;2.42;2.22;;;20.80;99.90;;;;;;6124976;23;20499;-73
2022/08/01 04:21:59;;;;;;;4.47;2.10;;;20.80;99.90;;;;;;6125572;23;20236;-74
2022/08/01 04:24:27;;;;;;;2.80;2.25;;;20.80;99.90;;;;;;6124910;23;20205;-74
2022/08/01 04:26:54;;;;;;;2.17;1.90;;;20.90;99.90;;;;;;6125257;23;20154;-74
2022/08/01 04:29:22;;;;;;;3.08;2.13;;;21.10;99.90;;;;;;6124492;23;20154;-74
2022/08/01 04:31:49;;;;;;;2.45;2.25;;;21.10;99.80;;;;;;6123755;23;20176;-74
2022/08/01 04:34:19;;;;;;;2.30;2.20;;;21.20;99.70;;;;;;6123920;23;20623;-73
2022/08/01 04:36:48;;;;;;;2.38;2.22;;;21.30;99.70;;;;;;6098438;23;20166;-73
2022/08/01 04:39:15;;;;;;;2.08;1.90;;;21.40;99.20;;;;;;6124254;23;20229;-73
2022/08/01 04:41:41;;;;;;;2.42;2.22;;;21.40;98.90;;;;;;6124510;23;20185;-73
2022/08/01 04:44:07;;;;;;;3.88;2.38;;;21.50;99.00;;;;;;6124860;23;20650;-74
2022/08/01 04:46:34;;;;;;;2.42;2.33;;;21.50;99.10;;;;;;6125210;23;20174;-72
2022/08/01 04:49:01;;;;;;;4.40;2.20;;;21.50;99.40;;;;;;6124418;23;20217;-72
2022/08/01 04:51:26;;;;;;;2.53;2.17;;;21.50;99.20;;;;;;6123890;23;20146;-75
2022/08/01 04:53:52;;;;;;;2.30;2.10;;;21.50;98.90;;;;;;6124116;23;20205;-74
2022/08/01 04:56:21;;;;;;;4.50;2.25;;;21.50;99.10;;;;;;6124739;23;20225;-75
2022/08/01 04:58:47;;;;;;;3.45;2.45;;;21.60;99.00;;;;;;6124343;23;20587;-75
2022/08/01 05:01:13;;;;;;;3.13;2.40;;;21.50;99.40;;;;;;6125076;23;20154;-74
2022/08/01 05:03:39;;;;;;;2.88;2.40;;;21.50;99.10;;;;;;6124804;23;20502;-76
2022/08/01 05:06:04;;;;;;;3.97;2.40;;;21.50;99.30;;;;;;6125074;23;20142;-76
2022/08/01 05:08:30;;;;;;;2.38;2.25;;;21.50;99.50;;;;;;6124770;23;20146;-75
2022/08/01 05:10:55;;;;;;;2.15;2.05;;;21.50;99.30;;;;;;6125282;23;20158;-75
2022/08/01 05:13:21;;;;;;;2.45;2.30;;;21.60;99.00;;;;;;6124939;23;20229;-76
2022/08/01 05:15:47;;;;;;;3.95;2.03;;;21.60;99.00;;;;;;6124655;23;20177;-76
2022/08/01 05:18:12;;;;;;;2.70;2.50;;;21.60;99.20;;;;;;6124859;23;20150;-74
2022/08/01 05:20:38;;;;;;;2.78;2.40;;;21.60;99.30;;;;;;6124612;23;20232;-75
2022/08/01 05:23:04;;;;;;;2.75;2.42;;;21.60;99.70;;;;;;6124318;23;20220;-75
2022/08/01 05:25:30;;;;;;;7.60;2.92;;;21.60;99.60;;;;;;6124502;23;20165;-75
2022/08/01 05:27:56;;;;;;;2.60;2.47;;;21.80;99.70;;;;;;6123751;23;20150;-75
2022/08/01 05:30:21;;;;;;;2.67;2.45;;;21.80;99.50;;;;;;6123435;23;20182;-73
2022/08/01 05:32:47;;;;;;;2.45;2.35;;;22.00;99.10;;;;;;6124326;23;20150;-73
2022/08/01 05:35:13;;;;;;;4.18;2.40;;;22.20;99.30;;;;;;6124850;23;20229;-73
2022/08/01 05:37:38;;;;;;;2.65;2.45;;;22.50;98.30;;;;;;6122514;23;20182;-75
2022/08/01 05:40:05;;;;;;;2.75;2.40;;;22.60;97.70;;;;;;6124351;23;20469;-75
2022/08/01 05:42:30;;;;;;;6.22;2.47;;;22.80;97.60;;;;;;6123287;23;20146;-75
2022/08/01 05:44:56;;;;;;;3.30;2.45;;;22.90;97.80;;;;;;6096952;23;20309;-74
2022/08/01 05:47:21;;;;;;;3.45;2.28;;;23.00;97.20;;;;;;6122345;23;20232;-75
2022/08/01 05:49:47;;;;;;;2.58;2.35;;;23.00;97.50;;;;;;6121027;23;20150;-74
2022/08/01 05:52:13;;;;;;;2.30;2.20;;;23.10;97.30;;;;;;6121235;23;20642;-75
2022/08/01 05:54:39;;;;;;;3.55;2.60;;;23.10;97.50;;;;;;6122706;23;20173;-74
2022/08/01 05:57:05;;;;;;;8.13;2.88;;;23.20;97.60;;;;;;6123687;23;20478;-76
2022/08/01 05:59:31;;;;;;;2.40;2.30;;;23.20;98.80;;;;;;6123369;23;20623;-76
2022/08/01 06:01:56;;;;;;;1.98;1.88;;;23.20;98.50;;;;;;6098556;23;20164;-75
2022/08/01 06:04:22;;;;;;;3.47;2.10;;;23.20;98.20;;;;;;6123002;23;20185;-75
2022/08/01 06:06:48;;;;;;;2.58;2.38;;;23.20;98.00;;;;;;6123817;23;20168;-75
2022/08/01 06:09:14;;;;;;;2.20;2.10;;;23.30;98.00;;;;;;6122666;23;20160;-74
2022/08/01 06:11:39;;;;;;;3.45;2.13;;;23.30;98.30;;;;;;6123395;23;20157;-74
2022/08/01 06:14:05;;;;;;;2.35;2.17;;;23.30;98.10;;;;;;6124267;23;20174;-74
2022/08/01 06:16:31;;;;;;;2.00;1.90;;;23.30;98.40;;;;;;6124596;23;20154;-75
2022/08/01 06:18:56;;;;;;;4.22;2.45;;;23.30;98.10;;;;;;6123698;23;20600;-75
2022/08/01 06:21:22;;;;;;;1.90;1.80;;;23.40;98.00;;;;;;6124738;23;20154;-75
2022/08/01 06:23:47;;;;;;;2.38;2.00;;;23.40;98.20;;;;;;6124087;23;20190;-75
2022/08/01 06:26:13;;;;;;;2.10;2.00;;;23.40;97.90;;;;;;6124154;23;20480;-74
2022/08/01 06:28:39;;;;;;;2.75;2.10;;;23.40;98.30;;;;;;6125215;23;20146;-74
2022/08/01 06:31:05;;;;;;;2.45;2.25;;;23.40;98.10;;;;;;6126252;23;20153;-74
2022/08/01 06:33:31;;;;;;;2.28;2.08;;;23.50;98.60;;;;;;6126377;23;20489;-72
2022/08/01 06:35:56;;;;;;;2.30;2.00;;;23.70;98.30;;;;;;6100694;23;20162;-73
2022/08/01 06:38:22;;;;;;;4.53;1.70;;;23.80;98.00;;;;;;6127036;23;20156;-73
2022/08/01 06:40:48;;;;;;;2.75;1.80;;;23.80;97.70;;;;;;6126547;23;20228;-74
2022/08/01 06:43:14;;;;;;;2.88;1.98;;;23.90;98.00;;;;;;6126739;23;20178;-73
2022/08/01 06:45:40;;;;;;;2.03;1.92;;;23.90;98.50;;;;;;6127030;23;20213;-73
2022/08/01 06:48:05;;;;;;;1.83;1.73;;;24.00;98.30;;;;;;6127003;23;20150;-72
2022/08/01 06:50:32;;;;;;;2.90;1.85;;;24.00;98.30;;;;;;6126172;23;20628;-73
2022/08/01 06:52:58;;;;;;;2.00;1.88;;;24.10;98.00;;;;;;6126411;23;20559;-72
2022/08/01 06:55:24;;;;;;;3.33;2.13;;;24.20;97.50;;;;;;6126479;23;20198;-74
2022/08/01 06:57:52;;;;;;;1.52;1.50;;;24.20;97.40;;;;;;6100419;23;20581;-75
2022/08/01 07:00:22;;;;;;;1.52;1.48;;;24.30;97.20;;;;;;6101593;23;20201;-76
2022/08/01 07:02:51;;;;;;;1.50;1.40;;;24.30;97.50;;;;;;6136468;23;20178;-77
2022/08/01 07:05:17;;;;;;;1.77;1.60;;;24.30;97.10;;;;;;6137449;23;20225;-76
2022/08/01 07:07:43;;;;;;;3.10;1.83;;;24.40;97.20;;;;;;6135766;23;20599;-76
2022/08/01 07:10:09;;;;;;;2.40;1.85;;;24.40;96.70;;;;;;6125571;23;20595;-75
2022/08/01 07:12:37;;;;;;;1.42;1.33;;;24.50;96.70;;;;;;6125880;23;20138;-75
2022/08/01 07:15:05;;;;;;;1.80;1.70;;;24.50;96.90;;;;;;6125962;23;20241;-75
2022/08/01 07:17:30;;;;;;;1.75;1.65;;;24.60;96.40;;;;;;6125347;23;20150;-75
2022/08/01 07:19:56;;;;;;;3.90;1.83;;;24.70;96.80;;;;;;6125532;23;20213;-75
2022/08/01 07:22:21;;;;;;;2.10;1.45;;;24.90;96.20;;;;;;6125961;23;20494;-75
2022/08/01 07:24:47;;;;;;;2.67;1.58;;;25.20;95.80;;;;;;6125649;23;20589;-75
2022/08/01 07:27:12;;;;;;;2.55;1.50;;;25.40;95.30;;;;;;6125599;23;20150;-75
2022/08/01 07:29:38;;;;;;;1.60;1.50;;;25.50;94.90;;;;;;6126496;23;20150;-74
2022/08/01 07:32:04;;;;;;;1.58;1.40;;;25.50;94.30;;;;;;6125645;23;20150;-75
2022/08/01 07:34:30;;;;;;;2.45;1.70;;;25.40;95.30;;;;;;6099596;23;20178;-75
2022/08/01 07:36:55;;;;;;;1.73;1.63;;;25.30;95.50;;;;;;6125446;23;20212;-75
2022/08/01 07:39:21;;;;;;;2.08;1.55;;;25.30;95.30;;;;;;6125572;23;20591;-75
2022/08/01 07:41:47;;;;;;;1.60;1.50;;;25.40;95.00;;;;;;6125805;23;20439;-74
2022/08/01 07:44:13;;;;;;;2.30;1.80;;;25.50;95.20;;;;;;6125022;23;20269;-74
2022/08/01 07:46:39;;;;;;;1.58;1.58;;;25.70;94.40;;;;;;6125441;23;20150;-72
2022/08/01 07:49:05;;;;;;;2.55;1.58;;;25.90;94.00;;;;;;6125291;23;20150;-72
2022/08/01 07:51:30;;;;;;;4.85;2.20;;;26.00;94.30;;;;;;6125495;23;20151;-72
2022/08/01 07:53:56;;;;;;;4.90;1.98;;;26.20;93.40;;;;;;6124510;23;20251;-72
2022/08/01 07:56:23;;;;;;;1.50;1.45;;;26.30;93.10;;;;;;6125349;23;20551;-71
2022/08/01 07:58:50;;;;;;;1.35;1.35;;;26.30;93.20;;;;;;6124206;23;20185;-72
2022/08/01 08:01:15;;;;;;;1.88;1.70;;;26.40;92.30;;;;;;6124818;23;20165;-71
2022/08/01 08:03:41;;;;;;;1.33;1.33;;;26.40;93.10;;;;;;6123938;23;20197;-71
2022/08/01 08:06:07;;;;;;;1.98;1.60;;;26.60;92.70;;;;;;6124474;23;20198;-72
2022/08/01 08:08:34;;;;;;;1.50;1.40;;;26.80;91.70;;;;;;6123741;23;20584;-72
2022/08/01 08:11:00;;;;;;;1.73;1.63;;;27.10;91.40;;;;;;6124658;23;20153;-71
2022/08/01 08:13:26;;;;;;;1.80;1.70;;;27.30;91.20;;;;;;6124796;23;20142;-72
2022/08/01 08:15:51;;;;;;;1.80;1.70;;;27.70;90.00;;;;;;6124237;23;20642;-71
2022/08/01 08:18:17;;;;;;;1.77;1.67;;;27.70;88.50;;;;;;6124761;23;20158;-71
2022/08/01 08:20:43;;;;;;;1.98;1.88;;;27.50;89.60;;;;;;6124736;23;20158;-71
2022/08/01 08:25:53;;;;;;;1.75;1.65;;;27.80;87.30;;;;;;6125188;23;20478;-71
2022/08/01 08:28:19;;;;;;;2.40;1.90;;;28.10;87.50;;;;;;6124403;23;20181;-71
2022/08/01 08:30:44;;;;;;;1.67;1.58;;;28.30;86.30;;;;;;6124833;23;20146;-73
2022/08/01 08:33:10;;;;;;;1.50;1.42;;;28.90;83.70;;;;;;6124934;23;20150;-73
2022/08/01 08:35:38;;;;;;;1.98;1.80;;;29.10;83.70;;;;;;6125011;23;20173;-73
2022/08/01 08:38:03;;;;;;;1.83;1.73;;;29.20;81.20;;;;;;6124240;23;20201;-73
2022/08/01 08:40:30;;;;;;;1.65;1.55;;;29.40;80.80;;;;;;6124468;23;20150;-73
2022/08/01 08:42:59;;;;;;;1.40;1.40;;;29.60;79.40;;;;;;6124740;23;20201;-72
2022/08/01 08:45:25;;;;;;;2.10;1.60;;;29.60;79.00;;;;;;6123742;23;20185;-72
2022/08/01 08:47:53;;;;;;;1.98;1.88;;;29.60;79.80;;;;;;6124697;23;20224;-73
2022/08/01 08:50:19;;;;;;;1.77;1.55;;;29.50;79.40;;;;;;6124056;23;20150;-72
2022/08/01 08:52:48;;;;;;;1.30;1.30;;;29.30;78.20;;;;;;6124646;23;20173;-73
2022/08/01 08:55:16;;;;;;;1.70;1.60;;;29.10;78.90;;;;;;6124164;23;20260;-73
2022/08/01 08:57:44;;;;;;;1.98;1.55;;;29.10;78.70;;;;;;6124065;23;20165;-74
2022/08/01 09:00:11;;;;;;;3.22;1.75;;;28.80;78.80;;;;;;6123402;23;20158;-75
2022/08/01 09:02:43;;;;;;;1.80;1.70;;;28.80;79.60;;;;;;6124062;23;20156;-74
2022/08/01 09:05:09;;;;;;;1.98;1.60;;;28.90;79.90;;;;;;6123905;23;20193;-73
2022/08/01 09:07:35;;;;;;;1.65;1.60;;;28.90;79.30;;;;;;6124509;23;20150;-73
2022/08/01 09:10:00;;;;;;;1.92;1.80;;;28.80;80.10;;;;;;6124215;23;20661;-73
2022/08/01 09:12:26;;;;;;;1.58;1.58;;;28.90;79.30;;;;;;6124683;23;20199;-72
2022/08/01 09:14:53;;;;;;;1.70;1.60;;;28.90;80.00;;;;;;6124538;23;20176;-73
2022/08/01 09:17:19;;;;;;;2.25;1.80;;;28.90;79.40;;;;;;6124678;23;20501;-73
2022/08/01 09:19:47;;;;;;;1.40;1.40;;;28.90;78.40;;;;;;6123320;23;20154;-75
2022/08/01 09:22:18;;;;;;;1.58;1.55;;;28.90;78.90;;;;;;6123976;23;20154;-75
2022/08/01 09:25:10;;;;;;;1.55;1.45;;;28.90;77.80;;;;;;6124034;23;20250;-74
2022/08/01 09:27:40;;;;;;;1.70;1.60;;;28.90;77.90;;;;;;6124396;23;20218;-74
2022/08/01 09:30:13;;;;;;;1.23;1.23;;;29.00;77.60;;;;;;6123971;23;20598;-75
2022/08/01 09:33:01;;;;;;;2.15;1.50;;;29.50;77.30;;;;;;6123880;23;20173;-76
2022/08/01 09:35:31;;;;;;;1.38;1.33;;;30.10;74.90;;;;;;6124242;23;20201;-75
2022/08/01 09:38:17;;;;;;;1.70;1.40;;;31.50;73.10;;;;;;6124117;23;20139;-75
2022/08/01 09:41:07;;;;;;;2.22;1.05;;;34.50;62.40;;;;;;6123735;23;20142;-75
2022/08/01 09:43:33;;;;;;;2.20;1.33;;;35.10;58.10;;;;;;6124113;23;20185;-75
2022/08/01 09:46:03;;;;;;;1.95;1.60;;;34.50;58.20;;;;;;6123704;23;20153;-75
2022/08/01 09:48:29;;;;;;;1.60;1.20;;;33.50;59.30;;;;;;6123724;23;20617;-75
2022/08/01 09:50:56;;;;;;;1.13;1.05;;;32.40;61.60;;;;;;6124235;23;20196;-75
2022/08/01 09:53:22;;;;;;;1.75;1.35;;;31.70;64.20;;;;;;6124281;23;20149;-75
2022/08/01 09:55:50;;;;;;;4.65;1.33;;;31.30;64.40;;;;;;6097277;23;20188;-73
2022/08/01 09:58:16;;;;;;;1.30;1.20;;;31.00;64.30;;;;;;6123448;23;20153;-72
2022/08/01 10:00:41;;;;;;;1.23;1.20;;;31.70;64.20;;;;;;6123752;23;20224;-72
2022/08/01 10:03:20;;;;;;;3.30;1.30;;;32.60;62.00;;;;;;6124296;23;20634;-72
2022/08/01 10:05:47;;;;;;;1.50;1.42;;;32.90;61.30;;;;;;6126283;23;20185;-73
2022/08/01 10:08:13;;;;;;;1.17;1.13;;;32.90;61.50;;;;;;6125863;23;20177;-72
2022/08/01 10:10:39;;;;;;;2.03;1.35;;;33.30;60.10;;;;;;6125752;23;20153;-71
2022/08/01 10:13:05;;;;;;;1.20;1.20;;;34.90;58.20;;;;;;6124425;23;20665;-72
2022/08/01 10:15:31;;;;;;;1.25;1.10;;;36.20;55.80;;;;;;6126030;23;20630;-73
2022/08/01 10:18:00;;;;;;;1.60;1.50;;;36.10;54.40;;;;;;6099151;23;20160;-73
2022/08/01 10:20:29;;;;;;;0.82;0.82;;;35.70;53.20;;;;;;6125744;23;20149;-73
2022/08/01 10:22:57;;;;;;;1.25;1.25;;;36.10;53.30;;;;;;6124224;23;20154;-73
2022/08/01 10:25:26;;;;;;;2.25;1.27;;;37.60;52.30;;;;;;6125403;23;20626;-73
2022/08/01 10:27:56;;;;;;;1.00;1.00;;;38.20;50.10;;;;;;6123909;23;20204;-73
2022/08/01 10:30:22;;;;;;;1.30;1.20;;;37.70;49.70;;;;;;6125067;23;20532;-73
2022/08/01 10:32:52;;;;;;;1.00;1.00;;;36.80;50.90;;;;;;6124816;23;20146;-73
2022/08/01 10:35:18;;;;;;;1.40;1.30;;;35.90;51.40;;;;;;6124726;23;20177;-72
2022/08/01 10:37:46;;;;;;;1.50;1.40;;;35.00;52.80;;;;;;6124458;23;20154;-75
2022/08/01 10:40:13;;;;;;;1.23;1.23;;;34.30;54.40;;;;;;6125379;23;20159;-74
2022/08/01 10:42:44;;;;;;;1.20;1.20;;;35.10;53.70;;;;;;6124610;23;20544;-74
2022/08/01 10:45:13;;;;;;;1.35;1.05;;;35.50;53.40;;;;;;6125435;23;20675;-74
2022/08/01 10:47:54;;;;;;;1.83;1.73;;;37.00;51.00;;;;;;6125656;23;20146;-75
2022/08/01 10:50:28;;;;;;;1.23;1.13;;;37.50;49.40;;;;;;6125620;23;20137;-74
2022/08/01 10:53:07;;;;;;;0.85;0.85;;;36.20;48.60;;;;;;6125896;23;20188;-74
2022/08/01 10:55:46;;;;;;;9.80;7.13;;;35.00;50.60;;;;;;6124473;23;20169;-74
2022/08/01 10:58:12;;;;;;;1.92;1.75;;;33.90;53.40;;;;;;6125714;23;20200;-76
2022/08/01 11:00:38;;;;;;;1.67;0.88;;;34.40;51.90;;;;;;6123703;23;20164;-77
2022/08/01 11:03:04;;;;;;;1.75;1.13;;;34.50;51.30;;;;;;6124885;23;20586;-74
2022/08/01 11:05:34;;;;;;;1.02;1.02;;;34.50;51.20;;;;;;6125438;23;20232;-75
2022/08/01 11:08:10;;;;;;;2.28;1.30;;;34.40;51.60;;;;;;6125899;23;20137;-75
2022/08/01 11:10:42;;;;;;;1.52;1.17;;;34.30;51.30;;;;;;6124891;23;20145;-75
2022/08/01 11:13:08;;;;;;;0.93;0.93;;;34.70;51.00;;;;;;6125422;23;20244;-75
2022/08/01 11:15:34;;;;;;;0.90;0.90;;;35.00;50.30;;;;;;6099660;23;20270;-74
2022/08/01 11:18:03;;;;;;;1.23;0.90;;;34.60;51.10;;;;;;6125691;23;20497;-76
2022/08/01 11:20:33;;;;;;;1.33;1.20;;;34.20;50.90;;;;;;6125497;23;20153;-75
2022/08/01 11:23:01;;;;;;;2.88;1.02;;;34.00;53.00;;;;;;6099707;23;20169;-75
2022/08/01 11:25:30;;;;;;;1.08;1.08;;;34.50;51.50;;;;;;6125411;23;20189;-75
2022/08/01 11:28:17;;;;;;;1.90;1.23;;;34.90;50.20;;;;;;6125538;23;20649;-75
2022/08/01 11:30:48;;;;;;;1.25;1.08;;;34.60;52.30;;;;;;6125245;23;20180;-75
2022/08/01 11:33:15;;;;;;;1.10;1.10;;;34.30;51.50;;;;;;6124805;23;20141;-75
2022/08/01 11:36:12;;;;;;;1.27;1.17;;;34.00;51.90;;;;;;6125178;23;20197;-75
2022/08/01 11:38:41;;;;;;;0.75;0.75;;;33.40;53.00;;;;;;6124045;23;20537;-76
2022/08/01 11:41:13;;;;;;;3.70;1.30;;;33.30;53.70;;;;;;6125639;23;20153;-76
2022/08/01 11:44:05;;;;;;;1.10;1.00;;;33.10;54.40;;;;;;6124938;23;20177;-75
2022/08/01 11:46:52;;;;;;;1.15;1.15;;;33.20;53.00;;;;;;6125628;23;20145;-75
2022/08/01 11:49:23;;;;;;;1.92;1.23;;;33.00;53.90;;;;;;6124653;23;20224;-76
2022/08/01 11:51:56;;;;;;;1.30;1.20;;;33.00;53.70;;;;;;6125510;23;20145;-76
2022/08/01 11:54:28;;;;;;;1.15;1.15;;;33.40;54.40;;;;;;6124090;23;20626;-76
2022/08/01 11:57:01;;;;;;;1.52;1.23;;;35.30;51.60;;;;;;6097454;23;20207;-77
2022/08/01 11:59:27;;;;;;;2.35;1.30;;;35.80;50.40;;;;;;6124778;23;20496;-75
2022/08/01 12:01:53;;;;;;;1.58;1.45;;;36.90;49.30;;;;;;6099066;23;20156;-75
2022/08/01 12:04:19;;;;;;;1.90;1.00;;;37.60;47.60;;;;;;6125079;23;20185;-74
2022/08/01 12:06:45;;;;;;;0.70;0.70;;;38.90;45.70;;;;;;6098131;23;20158;-74
2022/08/01 12:09:23;;;;;;;1.52;1.13;;;40.00;43.20;;;;;;6124581;23;20630;-74
2022/08/01 12:11:48;;;;;;;0.80;0.80;;;40.70;42.70;;;;;;6123261;23;20226;-75
2022/08/01 12:14:21;;;;;;;1.08;1.05;;;41.00;41.80;;;;;;6123083;23;20197;-75
2022/08/01 12:16:53;;;;;;;2.03;1.27;;;41.10;42.20;;;;;;6124974;23;20149;-74
2022/08/01 12:19:20;;;;;;;1.00;1.00;;;40.30;42.30;;;;;;6124548;23;20228;-74
2022/08/01 12:22:07;;;;;;;1.10;1.10;;;39.20;43.30;;;;;;6123283;23;20177;-69
2022/08/01 12:24:34;;;;;;;1.00;1.00;;;38.10;43.40;;;;;;6124597;23;20185;-72
2022/08/01 12:27:01;;;;;;;1.38;0.70;;;37.00;45.20;;;;;;6124702;23;20141;-73
2022/08/01 12:29:43;;;;;;;1.25;1.15;;;36.30;46.10;;;;;;6124812;23;20228;-73
2022/08/01 12:32:27;;;;;;;3.40;1.50;;;35.50;47.50;;;;;;6124342;23;20133;-71
2022/08/01 12:34:55;;;;;;;1.10;1.10;;;34.60;48.60;;;;;;6124705;23;20181;-71
2022/08/01 12:37:21;;;;;;;1.33;1.23;;;34.30;49.40;;;;;;6098167;23;20160;-72
2022/08/01 12:39:47;;;;;;;1.38;1.00;;;34.00;50.80;;;;;;6124194;23;20149;-74
2022/08/01 12:42:14;;;;;;;0.90;0.90;;;33.60;51.30;;;;;;6123431;23;20138;-73
2022/08/01 12:44:41;;;;;;;0.93;0.93;;;33.70;51.60;;;;;;6124286;23;20256;-73
2022/08/01 12:47:08;;;;;;;1.13;1.02;;;34.20;50.60;;;;;;6123992;23;20150;-73
2022/08/01 12:49:35;;;;;;;2.03;1.20;;;34.60;50.00;;;;;;6122166;23;20654;-72
2022/08/01 12:52:02;;;;;;;1.17;1.13;;;34.70;49.10;;;;;;6125643;23;20613;-75
2022/08/01 12:54:28;;;;;;;1.45;1.20;;;34.60;49.50;;;;;;6123782;23;20177;-75
2022/08/01 12:56:54;;;;;;;0.98;0.90;;;34.50;49.90;;;;;;6123916;23;20171;-75